sensor_id;sensor_type;location;lat;lon;timestamp;pressure;altitude;pressure_sealevel;temperature;humidity
49529;BME280;35423;37.320;-121.762;2023-04-19T00:02:09;100163.27;;;32.62;4.96
49529;BME280;35423;37.320;-121.762;2023-04-19T00:04:38;100162.00;;;32.91;4.81
49529;BME280;35423;37.320;-121.762;2023-04-19T00:07:04;100163.06;;;32.70;4.82
49529;BME280;35423;37.320;-121.762;2023-04-19T00:09:29;100165.83;;;32.51;4.64
49529;BME280;35423;37.320;-121.762;2023-04-19T00:11:54;100166.97;;;32.26;4.69
49529;BME280;35423;37.320;-121.762;2023-04-19T00:14:20;100166.54;;;32.32;4.62
49529;BME280;35423;37.320;-121.762;2023-04-19T00:16:54;100168.74;;;32.18;4.64
49529;BME280;35423;37.320;-121.762;2023-04-19T00:19:22;100169.53;;;31.75;4.48
49529;BME280;35423;37.320;-121.762;2023-04-19T00:21:55;100163.33;;;31.84;4.45
49529;BME280;35423;37.320;-121.762;2023-04-19T00:24:25;100158.98;;;31.46;4.57
49529;BME280;35423;37.320;-121.762;2023-04-19T00:26:59;100163.44;;;31.67;4.50
49529;BME280;35423;37.320;-121.762;2023-04-19T00:29:25;100165.81;;;31.80;4.33
49529;BME280;35423;37.320;-121.762;2023-04-19T00:31:52;100165.93;;;31.40;4.22
49529;BME280;35423;37.320;-121.762;2023-04-19T00:34:18;100161.94;;;31.39;4.11
49529;BME280;35423;37.320;-121.762;2023-04-19T00:36:45;100159.78;;;31.33;4.24
49529;BME280;35423;37.320;-121.762;2023-04-19T00:39:13;100162.66;;;31.22;4.28
49529;BME280;35423;37.320;-121.762;2023-04-19T00:41:43;100166.35;;;31.12;4.17
49529;BME280;35423;37.320;-121.762;2023-04-19T00:44:11;100164.70;;;31.05;4.19
49529;BME280;35423;37.320;-121.762;2023-04-19T00:46:40;100163.48;;;30.98;4.20
49529;BME280;35423;37.320;-121.762;2023-04-19T00:49:07;100164.76;;;30.90;4.14
49529;BME280;35423;37.320;-121.762;2023-04-19T00:51:31;100162.98;;;30.99;4.21
49529;BME280;35423;37.320;-121.762;2023-04-19T00:53:58;100162.49;;;30.85;4.27
49529;BME280;35423;37.320;-121.762;2023-04-19T00:56:26;100162.32;;;30.95;4.33
49529;BME280;35423;37.320;-121.762;2023-04-19T00:58:51;100169.29;;;30.65;4.36
49529;BME280;35423;37.320;-121.762;2023-04-19T01:01:22;100170.44;;;30.47;4.42
49529;BME280;35423;37.320;-121.762;2023-04-19T01:03:48;100172.32;;;30.05;4.59
49529;BME280;35423;37.320;-121.762;2023-04-19T01:06:16;100170.23;;;30.20;4.72
49529;BME280;35423;37.320;-121.762;2023-04-19T01:08:47;100176.53;;;30.00;4.61
49529;BME280;35423;37.320;-121.762;2023-04-19T01:11:14;100182.13;;;29.85;4.73
49529;BME280;35423;37.320;-121.762;2023-04-19T01:13:46;100192.21;;;29.93;4.86
49529;BME280;35423;37.320;-121.762;2023-04-19T01:16:16;100191.01;;;29.71;4.89
49529;BME280;35423;37.320;-121.762;2023-04-19T01:18:49;100189.55;;;29.57;4.99
49529;BME280;35423;37.320;-121.762;2023-04-19T01:21:14;100190.35;;;29.49;5.08
49529;BME280;35423;37.320;-121.762;2023-04-19T01:23:40;100191.49;;;29.91;5.32
49529;BME280;35423;37.320;-121.762;2023-04-19T01:26:10;100192.71;;;29.32;5.70
49529;BME280;35423;37.320;-121.762;2023-04-19T01:28:34;100199.55;;;29.15;5.94
49529;BME280;35423;37.320;-121.762;2023-04-19T01:31:01;100197.93;;;29.46;6.21
49529;BME280;35423;37.320;-121.762;2023-04-19T01:33:28;100198.81;;;28.75;6.38
49529;BME280;35423;37.320;-121.762;2023-04-19T01:35:58;100198.07;;;29.16;6.57
49529;BME280;35423;37.320;-121.762;2023-04-19T01:38:25;100194.00;;;28.58;6.74
49529;BME280;35423;37.320;-121.762;2023-04-19T01:40:51;100197.09;;;28.61;6.85
49529;BME280;35423;37.320;-121.762;2023-04-19T01:43:21;100196.88;;;28.60;6.94
49529;BME280;35423;37.320;-121.762;2023-04-19T01:45:48;100206.08;;;28.35;7.09
49529;BME280;35423;37.320;-121.762;2023-04-19T01:48:13;100211.69;;;28.23;7.26
49529;BME280;35423;37.320;-121.762;2023-04-19T01:50:40;100209.37;;;27.71;7.40
49529;BME280;35423;37.320;-121.762;2023-04-19T01:53:07;100215.87;;;27.50;7.59
49529;BME280;35423;37.320;-121.762;2023-04-19T01:55:39;100220.94;;;27.36;7.75
49529;BME280;35423;37.320;-121.762;2023-04-19T01:58:04;100224.93;;;27.47;7.91
49529;BME280;35423;37.320;-121.762;2023-04-19T02:00:31;100227.10;;;27.27;8.04
49529;BME280;35423;37.320;-121.762;2023-04-19T02:02:56;100229.55;;;27.21;8.13
49529;BME280;35423;37.320;-121.762;2023-04-19T02:05:26;100232.99;;;27.09;8.17
49529;BME280;35423;37.320;-121.762;2023-04-19T02:07:51;100235.38;;;27.29;8.22
49529;BME280;35423;37.320;-121.762;2023-04-19T02:10:25;100228.44;;;27.22;8.35
49529;BME280;35423;37.320;-121.762;2023-04-19T02:12:50;100223.78;;;27.07;8.47
49529;BME280;35423;37.320;-121.762;2023-04-19T02:15:16;100223.12;;;26.60;8.58
49529;BME280;35423;37.320;-121.762;2023-04-19T02:17:49;100223.29;;;26.66;8.65
49529;BME280;35423;37.320;-121.762;2023-04-19T02:20:17;100224.35;;;26.96;8.81
49529;BME280;35423;37.320;-121.762;2023-04-19T02:22:46;100227.85;;;26.70;9.11
49529;BME280;35423;37.320;-121.762;2023-04-19T02:25:12;100229.29;;;26.08;9.32
49529;BME280;35423;37.320;-121.762;2023-04-19T02:27:38;100232.32;;;26.24;9.50
49529;BME280;35423;37.320;-121.762;2023-04-19T02:30:05;100237.61;;;25.99;9.67
49529;BME280;35423;37.320;-121.762;2023-04-19T02:32:29;100237.98;;;25.80;9.80
49529;BME280;35423;37.320;-121.762;2023-04-19T02:35:01;100242.56;;;25.65;9.94
49529;BME280;35423;37.320;-121.762;2023-04-19T02:37:29;100245.02;;;25.44;10.15
49529;BME280;35423;37.320;-121.762;2023-04-19T02:39:55;100247.03;;;25.24;10.26
49529;BME280;35423;37.320;-121.762;2023-04-19T02:42:22;100249.44;;;25.29;10.49
49529;BME280;35423;37.320;-121.762;2023-04-19T02:44:47;100249.22;;;24.86;10.38
49529;BME280;35423;37.320;-121.762;2023-04-19T02:47:14;100246.46;;;24.66;10.23
49529;BME280;35423;37.320;-121.762;2023-04-19T02:49:41;100246.18;;;25.02;10.18
49529;BME280;35423;37.320;-121.762;2023-04-19T02:52:10;100246.61;;;24.84;10.31
49529;BME280;35423;37.320;-121.762;2023-04-19T02:54:37;100248.26;;;24.48;10.39
49529;BME280;35423;37.320;-121.762;2023-04-19T02:57:07;100251.55;;;24.55;10.47
49529;BME280;35423;37.320;-121.762;2023-04-19T02:59:36;100254.70;;;24.41;10.60
49529;BME280;35423;37.320;-121.762;2023-04-19T03:02:01;100257.27;;;24.21;10.76
49529;BME280;35423;37.320;-121.762;2023-04-19T03:04:27;100259.34;;;24.12;10.85
49529;BME280;35423;37.320;-121.762;2023-04-19T03:06:59;100266.28;;;24.01;11.00
49529;BME280;35423;37.320;-121.762;2023-04-19T03:09:24;100273.09;;;23.90;11.11
49529;BME280;35423;37.320;-121.762;2023-04-19T03:11:57;100281.57;;;23.77;11.28
49529;BME280;35423;37.320;-121.762;2023-04-19T03:14:26;100285.80;;;23.69;11.31
49529;BME280;35423;37.320;-121.762;2023-04-19T03:16:52;100290.70;;;23.82;11.48
49529;BME280;35423;37.320;-121.762;2023-04-19T03:19:23;100292.87;;;23.65;11.70
49529;BME280;35423;37.320;-121.762;2023-04-19T03:21:48;100292.57;;;23.53;11.86
49529;BME280;35423;37.320;-121.762;2023-04-19T03:24:17;100294.92;;;23.59;12.08
49529;BME280;35423;37.320;-121.762;2023-04-19T03:26:43;100299.03;;;23.40;12.27
49529;BME280;35423;37.320;-121.762;2023-04-19T03:29:08;100300.86;;;23.03;12.44
49529;BME280;35423;37.320;-121.762;2023-04-19T03:31:40;100303.09;;;22.91;12.72
49529;BME280;35423;37.320;-121.762;2023-04-19T03:34:11;100306.36;;;23.00;13.05
49529;BME280;35423;37.320;-121.762;2023-04-19T03:36:39;100307.09;;;23.07;13.28
49529;BME280;35423;37.320;-121.762;2023-04-19T03:39:12;100308.46;;;22.93;13.51
49529;BME280;35423;37.320;-121.762;2023-04-19T03:41:33;100309.53;;;22.60;13.50
49529;BME280;35423;37.320;-121.762;2023-04-19T03:43:59;100310.93;;;22.45;13.84
49529;BME280;35423;37.320;-121.762;2023-04-19T03:46:25;100318.09;;;22.39;13.89
49529;BME280;35423;37.320;-121.762;2023-04-19T03:48:52;100322.68;;;22.32;14.11
49529;BME280;35423;37.320;-121.762;2023-04-19T03:51:18;100328.68;;;22.44;14.21
49529;BME280;35423;37.320;-121.762;2023-04-19T03:53:49;100337.91;;;22.28;14.35
49529;BME280;35423;37.320;-121.762;2023-04-19T03:56:15;100341.35;;;22.17;14.46
49529;BME280;35423;37.320;-121.762;2023-04-19T03:58:51;100346.00;;;22.35;14.51
49529;BME280;35423;37.320;-121.762;2023-04-19T04:01:20;100348.89;;;22.22;14.62
49529;BME280;35423;37.320;-121.762;2023-04-19T04:03:41;100352.89;;;21.86;14.68
49529;BME280;35423;37.320;-121.762;2023-04-19T04:06:11;100352.87;;;21.98;14.83
49529;BME280;35423;37.320;-121.762;2023-04-19T04:08:37;100355.80;;;21.90;14.97
49529;BME280;35423;37.320;-121.762;2023-04-19T04:11:06;100356.55;;;21.83;15.12
49529;BME280;35423;37.320;-121.762;2023-04-19T04:13:35;100355.09;;;21.41;15.24
49529;BME280;35423;37.320;-121.762;2023-04-19T04:15:57;100358.94;;;21.56;15.38
49529;BME280;35423;37.320;-121.762;2023-04-19T04:18:24;100361.51;;;21.42;15.48
49529;BME280;35423;37.320;-121.762;2023-04-19T04:20:51;100365.09;;;21.32;15.58
49529;BME280;35423;37.320;-121.762;2023-04-19T04:23:18;100369.90;;;21.23;15.82
49529;BME280;35423;37.320;-121.762;2023-04-19T04:25:44;100370.84;;;21.34;15.88
49529;BME280;35423;37.320;-121.762;2023-04-19T04:28:11;100372.36;;;21.21;15.97
49529;BME280;35423;37.320;-121.762;2023-04-19T04:30:36;100381.02;;;21.15;16.07
49529;BME280;35423;37.320;-121.762;2023-04-19T04:33:01;100386.26;;;20.82;16.23
49529;BME280;35423;37.320;-121.762;2023-04-19T04:35:27;100387.42;;;21.20;16.28
49529;BME280;35423;37.320;-121.762;2023-04-19T04:37:54;100391.91;;;21.11;16.43
49529;BME280;35423;37.320;-121.762;2023-04-19T04:40:24;100395.35;;;21.11;16.42
49529;BME280;35423;37.320;-121.762;2023-04-19T04:42:52;100395.89;;;20.58;16.53
49529;BME280;35423;37.320;-121.762;2023-04-19T04:45:17;100399.64;;;20.96;16.65
49529;BME280;35423;37.320;-121.762;2023-04-19T04:47:44;100401.85;;;20.67;16.73
49529;BME280;35423;37.320;-121.762;2023-04-19T04:50:09;100406.98;;;20.60;16.80
49529;BME280;35423;37.320;-121.762;2023-04-19T04:52:39;100410.22;;;20.69;16.90
49529;BME280;35423;37.320;-121.762;2023-04-19T04:55:05;100412.53;;;20.63;16.95
49529;BME280;35423;37.320;-121.762;2023-04-19T04:57:32;100415.77;;;20.47;17.11
49529;BME280;35423;37.320;-121.762;2023-04-19T04:59:58;100416.72;;;20.39;17.17
49529;BME280;35423;37.320;-121.762;2023-04-19T05:02:25;100416.02;;;20.36;17.24
49529;BME280;35423;37.320;-121.762;2023-04-19T05:04:51;100417.67;;;20.59;17.27
49529;BME280;35423;37.320;-121.762;2023-04-19T05:07:23;100418.11;;;20.52;17.29
49529;BME280;35423;37.320;-121.762;2023-04-19T05:09:50;100416.50;;;20.44;17.50
49529;BME280;35423;37.320;-121.762;2023-04-19T05:12:15;100415.50;;;20.11;17.56
49529;BME280;35423;37.320;-121.762;2023-04-19T05:14:40;100414.05;;;20.33;17.60
49529;BME280;35423;37.320;-121.762;2023-04-19T05:17:07;100413.62;;;20.23;17.69
49529;BME280;35423;37.320;-121.762;2023-04-19T05:19:35;100417.70;;;20.16;17.80
49529;BME280;35423;37.320;-121.762;2023-04-19T05:22:04;100418.86;;;20.11;17.91
49529;BME280;35423;37.320;-121.762;2023-04-19T05:24:35;100421.92;;;20.00;18.04
49529;BME280;35423;37.320;-121.762;2023-04-19T05:27:00;100421.81;;;19.65;18.18
49529;BME280;35423;37.320;-121.762;2023-04-19T05:29:30;100427.34;;;20.07;18.27
49529;BME280;35423;37.320;-121.762;2023-04-19T05:31:57;100428.10;;;20.02;18.37
49529;BME280;35423;37.320;-121.762;2023-04-19T05:34:22;100428.91;;;19.97;18.42
49529;BME280;35423;37.320;-121.762;2023-04-19T05:36:53;100427.81;;;19.91;18.48
49529;BME280;35423;37.320;-121.762;2023-04-19T05:39:19;100429.06;;;19.84;18.57
49529;BME280;35423;37.320;-121.762;2023-04-19T05:41:44;100430.62;;;19.77;18.69
49529;BME280;35423;37.320;-121.762;2023-04-19T05:44:11;100431.72;;;19.69;18.72
49529;BME280;35423;37.320;-121.762;2023-04-19T05:46:39;100430.94;;;19.64;18.78
49529;BME280;35423;37.320;-121.762;2023-04-19T05:49:07;100427.11;;;19.57;18.76
49529;BME280;35423;37.320;-121.762;2023-04-19T05:51:33;100427.83;;;19.45;18.84
49529;BME280;35423;37.320;-121.762;2023-04-19T05:54:00;100429.66;;;19.39;18.85
49529;BME280;35423;37.320;-121.762;2023-04-19T05:56:27;100429.72;;;19.33;18.91
49529;BME280;35423;37.320;-121.762;2023-04-19T05:58:52;100431.04;;;19.27;18.96
49529;BME280;35423;37.320;-121.762;2023-04-19T06:01:24;100431.87;;;19.22;19.01
49529;BME280;35423;37.320;-121.762;2023-04-19T06:03:52;100431.68;;;19.12;19.16
49529;BME280;35423;37.320;-121.762;2023-04-19T06:06:17;100431.45;;;19.09;19.15
49529;BME280;35423;37.320;-121.762;2023-04-19T06:08:44;100429.85;;;19.31;19.27
49529;BME280;35423;37.320;-121.762;2023-04-19T06:11:11;100426.78;;;19.24;19.45
49529;BME280;35423;37.320;-121.762;2023-04-19T06:13:36;100426.50;;;19.34;19.68
49529;BME280;35423;37.320;-121.762;2023-04-19T06:16:06;100429.21;;;18.77;19.88
49529;BME280;35423;37.320;-121.762;2023-04-19T06:18:32;100431.15;;;18.72;20.01
49529;BME280;35423;37.320;-121.762;2023-04-19T06:20:57;100433.09;;;19.18;20.06
49529;BME280;35423;37.320;-121.762;2023-04-19T06:23:23;100435.45;;;18.91;20.19
49529;BME280;35423;37.320;-121.762;2023-04-19T06:25:50;100434.70;;;19.06;20.28
49529;BME280;35423;37.320;-121.762;2023-04-19T06:28:19;100434.53;;;18.99;20.30
49529;BME280;35423;37.320;-121.762;2023-04-19T06:30:49;100432.43;;;18.90;20.44
49529;BME280;35423;37.320;-121.762;2023-04-19T06:33:15;100438.16;;;18.80;20.54
49529;BME280;35423;37.320;-121.762;2023-04-19T06:35:42;100435.97;;;18.75;20.63
49529;BME280;35423;37.320;-121.762;2023-04-19T06:38:11;100436.57;;;18.67;20.84
49529;BME280;35423;37.320;-121.762;2023-04-19T06:40:39;100439.00;;;18.63;21.01
49529;BME280;35423;37.320;-121.762;2023-04-19T06:43:04;100438.94;;;18.60;21.20
49529;BME280;35423;37.320;-121.762;2023-04-19T06:45:31;100439.44;;;18.56;21.29
49529;BME280;35423;37.320;-121.762;2023-04-19T06:47:56;100441.80;;;18.50;21.42
49529;BME280;35423;37.320;-121.762;2023-04-19T06:50:22;100441.53;;;18.46;21.52
49529;BME280;35423;37.320;-121.762;2023-04-19T06:52:47;100441.02;;;18.40;21.68
49529;BME280;35423;37.320;-121.762;2023-04-19T06:55:13;100445.43;;;18.35;21.74
49529;BME280;35423;37.320;-121.762;2023-04-19T06:57:38;100445.92;;;18.30;21.88
49529;BME280;35423;37.320;-121.762;2023-04-19T07:00:07;100443.72;;;18.19;21.99
49529;BME280;35423;37.320;-121.762;2023-04-19T07:02:32;100444.82;;;18.21;22.07
49529;BME280;35423;37.320;-121.762;2023-04-19T07:04:58;100443.67;;;18.38;22.14
49529;BME280;35423;37.320;-121.762;2023-04-19T07:07:25;100444.56;;;18.07;22.23
49529;BME280;35423;37.320;-121.762;2023-04-19T07:09:50;100445.14;;;18.02;22.34
49529;BME280;35423;37.320;-121.762;2023-04-19T07:12:19;100447.51;;;18.17;22.44
49529;BME280;35423;37.320;-121.762;2023-04-19T07:14:45;100450.52;;;18.14;22.52
49529;BME280;35423;37.320;-121.762;2023-04-19T07:17:12;100450.90;;;17.84;22.67
49529;BME280;35423;37.320;-121.762;2023-04-19T07:19:38;100452.39;;;17.79;22.75
49529;BME280;35423;37.320;-121.762;2023-04-19T07:22:04;100456.79;;;17.73;22.90
49529;BME280;35423;37.320;-121.762;2023-04-19T07:24:29;100459.06;;;17.90;22.96
49529;BME280;35423;37.320;-121.762;2023-04-19T07:26:55;100462.45;;;18.14;22.98
49529;BME280;35423;37.320;-121.762;2023-04-19T07:29:21;100461.24;;;18.07;23.11
49529;BME280;35423;37.320;-121.762;2023-04-19T07:31:47;100461.94;;;17.80;23.07
49529;BME280;35423;37.320;-121.762;2023-04-19T07:34:14;100458.65;;;17.77;23.16
49529;BME280;35423;37.320;-121.762;2023-04-19T07:36:41;100458.71;;;17.73;23.20
49529;BME280;35423;37.320;-121.762;2023-04-19T07:39:05;100457.55;;;17.91;23.32
49529;BME280;35423;37.320;-121.762;2023-04-19T07:41:31;100457.46;;;17.61;23.37
49529;BME280;35423;37.320;-121.762;2023-04-19T07:43:57;100461.51;;;17.58;23.43
49529;BME280;35423;37.320;-121.762;2023-04-19T07:46:22;100462.44;;;17.85;23.47
49529;BME280;35423;37.320;-121.762;2023-04-19T07:48:51;100462.00;;;17.60;23.52
49529;BME280;35423;37.320;-121.762;2023-04-19T07:51:16;100461.79;;;17.65;23.49
49529;BME280;35423;37.320;-121.762;2023-04-19T07:53:41;100459.62;;;17.93;23.50
49529;BME280;35423;37.320;-121.762;2023-04-19T07:56:11;100458.49;;;17.66;23.50
49529;BME280;35423;37.320;-121.762;2023-04-19T07:58:39;100459.93;;;17.65;23.52
49529;BME280;35423;37.320;-121.762;2023-04-19T08:01:04;100460.08;;;17.86;23.58
49529;BME280;35423;37.320;-121.762;2023-04-19T08:03:36;100459.27;;;17.55;23.63
49529;BME280;35423;37.320;-121.762;2023-04-19T08:06:07;100460.05;;;17.72;23.77
49529;BME280;35423;37.320;-121.762;2023-04-19T08:08:33;100462.23;;;17.45;23.81
49529;BME280;35423;37.320;-121.762;2023-04-19T08:11:07;100460.59;;;17.69;23.89
49529;BME280;35423;37.320;-121.762;2023-04-19T08:13:32;100458.60;;;17.69;23.90
49529;BME280;35423;37.320;-121.762;2023-04-19T08:15:58;100455.55;;;17.13;23.98
49529;BME280;35423;37.320;-121.762;2023-04-19T08:18:31;100452.96;;;17.59;24.04
49529;BME280;35423;37.320;-121.762;2023-04-19T08:20:56;100452.02;;;17.58;24.13
49529;BME280;35423;37.320;-121.762;2023-04-19T08:23:22;100452.84;;;17.55;24.22
49529;BME280;35423;37.320;-121.762;2023-04-19T08:25:48;100455.40;;;17.56;24.21
49529;BME280;35423;37.320;-121.762;2023-04-19T08:28:18;100454.30;;;17.58;24.29
49529;BME280;35423;37.320;-121.762;2023-04-19T08:30:47;100456.04;;;17.59;24.34
49529;BME280;35423;37.320;-121.762;2023-04-19T08:33:15;100457.12;;;17.66;24.35
49529;BME280;35423;37.320;-121.762;2023-04-19T08:35:42;100450.89;;;17.56;24.46
49529;BME280;35423;37.320;-121.762;2023-04-19T08:38:10;100450.48;;;17.56;24.42
49529;BME280;35423;37.320;-121.762;2023-04-19T08:40:42;100447.54;;;17.55;24.44
49529;BME280;35423;37.320;-121.762;2023-04-19T08:43:05;100444.40;;;17.51;24.50
49529;BME280;35423;37.320;-121.762;2023-04-19T08:45:27;100440.47;;;17.18;24.59
49529;BME280;35423;37.320;-121.762;2023-04-19T08:47:52;100440.45;;;17.40;24.68
49529;BME280;35423;37.320;-121.762;2023-04-19T08:50:20;100439.52;;;17.38;24.77
49529;BME280;35423;37.320;-121.762;2023-04-19T08:52:54;100441.52;;;17.37;24.79
49529;BME280;35423;37.320;-121.762;2023-04-19T08:55:21;100440.57;;;17.35;24.81
49529;BME280;35423;37.320;-121.762;2023-04-19T08:57:58;100440.55;;;17.80;24.85
49529;BME280;35423;37.320;-121.762;2023-04-19T09:00:24;100441.56;;;17.37;24.87
49529;BME280;35423;37.320;-121.762;2023-04-19T09:02:52;100441.70;;;17.44;24.85
49529;BME280;35423;37.320;-121.762;2023-04-19T09:05:17;100443.64;;;17.49;24.86
49529;BME280;35423;37.320;-121.762;2023-04-19T09:07:42;100443.32;;;17.54;24.87
49529;BME280;35423;37.320;-121.762;2023-04-19T09:10:09;100442.96;;;17.81;24.88
49529;BME280;35423;37.320;-121.762;2023-04-19T09:12:34;100444.43;;;17.64;24.88
49529;BME280;35423;37.320;-121.762;2023-04-19T09:15:07;100442.52;;;17.67;24.89
49529;BME280;35423;37.320;-121.762;2023-04-19T09:17:32;100439.86;;;17.68;24.93
49529;BME280;35423;37.320;-121.762;2023-04-19T09:19:59;100437.88;;;17.72;24.92
49529;BME280;35423;37.320;-121.762;2023-04-19T09:22:24;100437.29;;;17.70;24.90
49529;BME280;35423;37.320;-121.762;2023-04-19T09:24:51;100437.34;;;17.62;24.91
49529;BME280;35423;37.320;-121.762;2023-04-19T09:27:24;100435.82;;;17.58;24.96
49529;BME280;35423;37.320;-121.762;2023-04-19T09:29:52;100436.54;;;17.54;24.99
49529;BME280;35423;37.320;-121.762;2023-04-19T09:32:13;100437.36;;;17.51;24.99
49529;BME280;35423;37.320;-121.762;2023-04-19T09:37:11;100440.13;;;17.45;25.07
49529;BME280;35423;37.320;-121.762;2023-04-19T09:39:34;100438.80;;;17.46;25.14
49529;BME280;35423;37.320;-121.762;2023-04-19T09:42:00;100438.77;;;17.47;25.08
49529;BME280;35423;37.320;-121.762;2023-04-19T09:44:26;100437.64;;;17.49;25.05
49529;BME280;35423;37.320;-121.762;2023-04-19T09:46:51;100437.58;;;17.49;25.10
49529;BME280;35423;37.320;-121.762;2023-04-19T09:49:25;100438.99;;;17.72;25.11
49529;BME280;35423;37.320;-121.762;2023-04-19T09:51:52;100439.74;;;17.24;25.12
49529;BME280;35423;37.320;-121.762;2023-04-19T09:54:17;100442.90;;;17.51;25.15
49529;BME280;35423;37.320;-121.762;2023-04-19T09:56:44;100439.54;;;17.54;25.08
49529;BME280;35423;37.320;-121.762;2023-04-19T09:59:18;100440.02;;;17.55;25.08
49529;BME280;35423;37.320;-121.762;2023-04-19T10:01:46;100437.73;;;17.78;25.12
49529;BME280;35423;37.320;-121.762;2023-04-19T10:04:18;100438.81;;;17.58;25.08
49529;BME280;35423;37.320;-121.762;2023-04-19T10:06:45;100443.36;;;17.59;25.11
49529;BME280;35423;37.320;-121.762;2023-04-19T10:09:13;100442.38;;;17.59;25.13
49529;BME280;35423;37.320;-121.762;2023-04-19T10:11:37;100444.65;;;17.57;25.14
49529;BME280;35423;37.320;-121.762;2023-04-19T10:14:06;100445.79;;;17.52;25.16
49529;BME280;35423;37.320;-121.762;2023-04-19T10:16:30;100447.04;;;17.69;25.17
49529;BME280;35423;37.320;-121.762;2023-04-19T10:18:56;100452.59;;;17.34;25.24
49529;BME280;35423;37.320;-121.762;2023-04-19T10:21:21;100458.28;;;17.23;25.33
49529;BME280;35423;37.320;-121.762;2023-04-19T10:23:47;100458.14;;;17.36;25.35
49529;BME280;35423;37.320;-121.762;2023-04-19T10:26:15;100456.24;;;17.06;25.48
49529;BME280;35423;37.320;-121.762;2023-04-19T10:28:43;100455.70;;;17.23;25.51
49529;BME280;35423;37.320;-121.762;2023-04-19T10:31:12;100456.86;;;17.15;25.59
49529;BME280;35423;37.320;-121.762;2023-04-19T10:33:41;100464.13;;;17.13;25.56
49529;BME280;35423;37.320;-121.762;2023-04-19T10:36:10;100460.69;;;16.92;25.55
49529;BME280;35423;37.320;-121.762;2023-04-19T10:38:38;100460.03;;;17.39;25.47
49529;BME280;35423;37.320;-121.762;2023-04-19T10:41:00;100460.30;;;17.22;25.43
49529;BME280;35423;37.320;-121.762;2023-04-19T10:43:27;100459.55;;;17.45;25.57
49529;BME280;35423;37.320;-121.762;2023-04-19T10:46:00;100457.95;;;17.24;25.69
49529;BME280;35423;37.320;-121.762;2023-04-19T10:55:49;100454.61;;;16.86;25.98
49529;BME280;35423;37.320;-121.762;2023-04-19T10:58:14;100456.70;;;16.82;26.02
49529;BME280;35423;37.320;-121.762;2023-04-19T11:00:42;100461.45;;;16.82;26.10
49529;BME280;35423;37.320;-121.762;2023-04-19T11:08:08;100476.70;;;16.82;26.10
49529;BME280;35423;37.320;-121.762;2023-04-19T11:10:36;100478.27;;;17.49;25.93
49529;BME280;35423;37.320;-121.762;2023-04-19T11:13:02;100482.07;;;17.17;25.73
49529;BME280;35423;37.320;-121.762;2023-04-19T11:15:28;100483.30;;;17.13;25.53
49529;BME280;35423;37.320;-121.762;2023-04-19T11:17:59;100483.04;;;16.85;25.45
49529;BME280;35423;37.320;-121.762;2023-04-19T11:20:29;100485.19;;;16.84;25.40
49529;BME280;35423;37.320;-121.762;2023-04-19T11:22:56;100488.88;;;17.07;25.40
49529;BME280;35423;37.320;-121.762;2023-04-19T11:25:22;100487.07;;;17.09;25.34
49529;BME280;35423;37.320;-121.762;2023-04-19T11:27:53;100484.59;;;17.08;25.25
49529;BME280;35423;37.320;-121.762;2023-04-19T11:30:19;100486.49;;;17.08;25.25
49529;BME280;35423;37.320;-121.762;2023-04-19T11:32:46;100486.81;;;17.04;25.26
49529;BME280;35423;37.320;-121.762;2023-04-19T11:35:12;100488.08;;;16.84;25.28
49529;BME280;35423;37.320;-121.762;2023-04-19T11:37:43;100491.66;;;17.10;25.18
49529;BME280;35423;37.320;-121.762;2023-04-19T11:40:09;100485.13;;;17.09;25.09
49529;BME280;35423;37.320;-121.762;2023-04-19T11:42:37;100486.35;;;17.08;25.03
49529;BME280;35423;37.320;-121.762;2023-04-19T11:45:03;100490.45;;;17.08;24.97
49529;BME280;35423;37.320;-121.762;2023-04-19T11:47:28;100485.89;;;16.64;24.93
49529;BME280;35423;37.320;-121.762;2023-04-19T11:49:54;100491.25;;;17.09;24.91
49529;BME280;35423;37.320;-121.762;2023-04-19T11:52:21;100493.82;;;17.10;24.87
49529;BME280;35423;37.320;-121.762;2023-04-19T11:54:46;100491.41;;;17.09;24.84
49529;BME280;35423;37.320;-121.762;2023-04-19T11:57:12;100495.81;;;16.83;24.89
49529;BME280;35423;37.320;-121.762;2023-04-19T11:59:39;100495.50;;;16.97;24.98
49529;BME280;35423;37.320;-121.762;2023-04-19T12:02:08;100497.05;;;16.87;25.03
49529;BME280;35423;37.320;-121.762;2023-04-19T12:04:35;100497.24;;;16.78;25.22
49529;BME280;35423;37.320;-121.762;2023-04-19T12:07:04;100495.07;;;16.66;25.62
49529;BME280;35423;37.320;-121.762;2023-04-19T12:09:28;100497.26;;;16.91;25.91
49529;BME280;35423;37.320;-121.762;2023-04-19T12:11:53;100498.98;;;16.65;26.06
49529;BME280;35423;37.320;-121.762;2023-04-19T12:14:23;100496.22;;;16.68;26.18
49529;BME280;35423;37.320;-121.762;2023-04-19T12:19:22;100504.32;;;16.77;26.24
49529;BME280;35423;37.320;-121.762;2023-04-19T12:24:21;100507.41;;;16.81;26.36
49529;BME280;35423;37.320;-121.762;2023-04-19T12:26:54;100510.15;;;16.85;26.37
49529;BME280;35423;37.320;-121.762;2023-04-19T12:29:21;100516.94;;;17.12;26.40
49529;BME280;35423;37.320;-121.762;2023-04-19T12:31:52;100517.77;;;16.84;26.47
49529;BME280;35423;37.320;-121.762;2023-04-19T12:34:18;100518.72;;;16.85;26.50
49529;BME280;35423;37.320;-121.762;2023-04-19T12:36:48;100523.30;;;16.85;26.71
49529;BME280;35423;37.320;-121.762;2023-04-19T12:39:16;100526.15;;;16.86;26.80
49529;BME280;35423;37.320;-121.762;2023-04-19T12:41:43;100524.14;;;16.86;26.95
49529;BME280;35423;37.320;-121.762;2023-04-19T12:44:10;100526.53;;;16.85;27.09